createdAt,value
2023-04-29T00:01:14.577Z,16.37
2023-04-29T00:03:41.684Z,16.00
2023-04-29T00:06:08.507Z,15.80
2023-04-29T00:08:35.143Z,15.40
2023-04-29T00:11:01.644Z,17.03
2023-04-29T00:13:28.413Z,16.13
2023-04-29T00:15:55.034Z,15.97
2023-04-29T00:18:21.709Z,16.20
2023-04-29T00:20:48.219Z,16.30
2023-04-29T00:23:14.748Z,18.10
2023-04-29T00:25:41.316Z,17.57
2023-04-29T00:28:07.955Z,17.10
2023-04-29T00:30:34.791Z,16.97
2023-04-29T00:33:01.605Z,16.73
2023-04-29T00:35:28.461Z,19.20
2023-04-29T00:37:55.128Z,18.70
2023-04-29T00:40:21.932Z,16.57
2023-04-29T00:42:48.592Z,18.33
2023-04-29T00:45:15.183Z,18.10
2023-04-29T00:47:42.009Z,17.83
2023-04-29T00:50:08.889Z,17.40
2023-04-29T00:52:35.432Z,18.37
2023-04-29T00:55:01.979Z,17.70
2023-04-29T00:57:31.654Z,21.17
2023-04-29T00:59:59.343Z,18.50
2023-04-29T01:02:26.815Z,20.30
2023-04-29T01:04:53.759Z,19.33
2023-04-29T01:07:21.143Z,20.70
2023-04-29T01:09:48.726Z,19.43
2023-04-29T01:12:15.276Z,19.77
2023-04-29T01:14:41.811Z,20.47
2023-04-29T01:17:08.382Z,21.97
2023-04-29T01:19:34.945Z,22.53
2023-04-29T01:22:01.453Z,22.67
2023-04-29T01:24:28.041Z,23.20
2023-04-29T01:26:54.820Z,24.27
2023-04-29T01:29:21.757Z,24.57
2023-04-29T01:31:48.379Z,22.97
2023-04-29T01:34:15.023Z,23.67
2023-04-29T01:36:41.562Z,23.67
2023-04-29T01:39:08.339Z,23.73
2023-04-29T01:41:34.859Z,22.93
2023-04-29T01:44:01.773Z,24.50
2023-04-29T01:46:28.482Z,21.90
2023-04-29T01:48:55.468Z,22.97
2023-04-29T01:51:22.056Z,23.67
2023-04-29T01:53:49.182Z,23.90
2023-04-29T01:56:16.037Z,24.87
2023-04-29T01:58:42.630Z,24.83
2023-04-29T02:01:10.354Z,23.90
2023-04-29T02:03:37.148Z,22.03
2023-04-29T02:06:04.341Z,21.30
2023-04-29T02:08:30.944Z,21.93
2023-04-29T02:10:57.518Z,22.10
2023-04-29T02:13:24.134Z,20.90
2023-04-29T02:15:50.707Z,22.60
2023-04-29T02:18:17.269Z,20.50
2023-04-29T02:20:43.865Z,20.60
2023-04-29T02:23:10.750Z,20.27
2023-04-29T02:25:37.370Z,21.87
2023-04-29T02:28:03.946Z,24.53
2023-04-29T02:30:30.577Z,22.47
2023-04-29T02:32:57.176Z,24.40
2023-04-29T02:35:23.804Z,23.47
2023-04-29T02:37:50.380Z,22.53
2023-04-29T02:40:16.938Z,24.23
2023-04-29T02:42:43.549Z,22.50
2023-04-29T02:45:12.662Z,23.10
2023-04-29T02:47:39.190Z,23.37
2023-04-29T02:50:06.039Z,21.10
2023-04-29T02:52:32.675Z,20.90
2023-04-29T02:54:59.245Z,21.97
2023-04-29T02:57:25.888Z,22.10
2023-04-29T02:59:52.919Z,22.47
2023-04-29T03:02:19.820Z,21.00
2023-04-29T03:04:46.688Z,21.30
2023-04-29T03:07:13.201Z,22.57
2023-04-29T03:09:39.761Z,25.20
2023-04-29T03:12:06.278Z,22.90
2023-04-29T03:14:32.882Z,24.60
2023-04-29T03:16:59.528Z,23.70
2023-04-29T03:19:26.215Z,23.70
2023-04-29T03:21:54.009Z,23.20
2023-04-29T03:24:20.780Z,21.23
2023-04-29T03:26:47.384Z,23.20
2023-04-29T03:29:13.867Z,26.20
2023-04-29T03:31:40.522Z,23.63
2023-04-29T03:34:07.214Z,26.17
2023-04-29T03:36:33.741Z,24.60
2023-04-29T03:39:00.343Z,27.43
2023-04-29T03:41:27.012Z,29.67
2023-04-29T03:43:54.762Z,30.47
2023-04-29T03:46:21.809Z,27.27
2023-04-29T03:48:48.413Z,27.83
2023-04-29T03:51:14.956Z,26.00
2023-04-29T03:53:41.483Z,24.17
2023-04-29T03:56:07.975Z,21.73
2023-04-29T03:58:34.564Z,19.97
2023-04-29T04:01:01.059Z,23.73
2023-04-29T04:03:28.259Z,24.87
2023-04-29T04:05:55.061Z,20.33
2023-04-29T04:08:21.743Z,19.93
2023-04-29T04:10:48.355Z,21.37
2023-04-29T04:13:15.410Z,19.47
2023-04-29T04:15:42.455Z,22.30
2023-04-29T04:18:09.069Z,20.97
2023-04-29T04:20:35.752Z,22.50
2023-04-29T04:23:02.337Z,21.97
2023-04-29T04:25:30.199Z,20.57
2023-04-29T04:27:56.698Z,20.43
2023-04-29T04:30:23.282Z,19.30
2023-04-29T04:32:49.875Z,18.80
2023-04-29T04:35:16.481Z,19.10
2023-04-29T04:37:43.004Z,17.77
2023-04-29T04:40:11.263Z,18.33
2023-04-29T04:42:37.819Z,17.47
2023-04-29T04:45:04.351Z,18.10
2023-04-29T04:47:31.004Z,17.10
2023-04-29T04:49:57.504Z,20.30
2023-04-29T04:52:24.000Z,20.40
2023-04-29T04:54:50.641Z,18.27
2023-04-29T04:57:17.233Z,19.67
2023-04-29T04:59:44.158Z,20.60
2023-04-29T05:02:11.192Z,19.57
2023-04-29T05:04:37.902Z,21.77
2023-04-29T05:07:04.822Z,21.50
2023-04-29T05:09:32.537Z,22.00
2023-04-29T05:11:59.720Z,22.20
2023-04-29T05:14:26.426Z,21.30
2023-04-29T05:16:53.472Z,21.80
2023-04-29T05:19:20.154Z,24.17
2023-04-29T05:21:46.664Z,22.00
2023-04-29T05:24:13.235Z,22.47
2023-04-29T05:26:39.813Z,20.37
2023-04-29T05:29:06.376Z,19.23
2023-04-29T05:31:33.437Z,19.13
2023-04-29T05:34:00.007Z,20.30
2023-04-29T05:36:27.880Z,19.13
2023-04-29T05:38:54.515Z,18.40
2023-04-29T05:41:21.448Z,19.17
2023-04-29T05:43:48.008Z,17.37
2023-04-29T05:46:14.603Z,18.60
2023-04-29T05:48:41.249Z,16.00
2023-04-29T05:51:07.787Z,20.87
2023-04-29T05:53:35.681Z,19.20
2023-04-29T05:56:06.502Z,18.60
2023-04-29T05:58:33.263Z,16.70
2023-04-29T06:01:00.277Z,16.87
2023-04-29T06:03:27.449Z,15.60
2023-04-29T06:05:54.340Z,16.10
2023-04-29T06:08:21.217Z,16.67
2023-04-29T06:10:47.859Z,17.17
2023-04-29T06:13:14.387Z,19.57
2023-04-29T06:15:40.903Z,21.53
2023-04-29T06:18:07.649Z,23.20
2023-04-29T06:20:36.816Z,24.03
2023-04-29T06:23:05.244Z,25.70
2023-04-29T06:25:31.778Z,25.20
2023-04-29T06:27:58.310Z,28.60
2023-04-29T06:30:24.879Z,24.90
2023-04-29T06:32:51.827Z,27.53
2023-04-29T06:35:18.480Z,28.60
2023-04-29T06:37:45.405Z,26.57
2023-04-29T06:40:11.971Z,27.23
2023-04-29T06:42:38.696Z,25.30
2023-04-29T06:45:05.276Z,27.90
2023-04-29T06:47:32.980Z,26.17
2023-04-29T06:49:59.719Z,27.37
2023-04-29T06:52:26.255Z,23.60
2023-04-29T06:54:52.813Z,25.73
2023-04-29T06:57:20.644Z,24.03
2023-04-29T06:59:47.261Z,22.13
2023-04-29T07:02:13.939Z,24.37
2023-04-29T07:04:40.943Z,20.73
2023-04-29T07:07:07.584Z,20.27
2023-04-29T07:09:34.126Z,20.80
2023-04-29T07:12:02.603Z,21.73
2023-04-29T07:14:29.130Z,22.20
2023-04-29T07:16:55.882Z,20.03
2023-04-29T07:19:22.488Z,21.70
2023-04-29T07:21:49.029Z,21.97
2023-04-29T07:24:15.609Z,22.17
2023-04-29T07:26:42.539Z,20.50
2023-04-29T07:29:09.031Z,21.50
2023-04-29T07:31:38.064Z,21.33
2023-04-29T07:34:05.128Z,20.60
2023-04-29T07:36:33.003Z,19.93
2023-04-29T07:38:59.726Z,21.07
2023-04-29T07:41:26.245Z,23.10
2023-04-29T07:43:52.811Z,18.40
2023-04-29T07:46:19.431Z,18.87
2023-04-29T07:48:46.090Z,18.23
2023-04-29T07:51:12.617Z,17.77
2023-04-29T07:53:39.171Z,18.27
2023-04-29T07:56:06.058Z,17.73
2023-04-29T07:58:32.629Z,18.50
2023-04-29T08:00:59.189Z,17.03
2023-04-29T08:03:25.826Z,18.53
2023-04-29T08:05:53.574Z,16.07
2023-04-29T08:08:20.339Z,16.40
2023-04-29T08:10:47.070Z,17.43
2023-04-29T08:13:13.661Z,18.10
2023-04-29T08:15:40.307Z,17.00
2023-04-29T08:18:06.889Z,16.53
2023-04-29T08:20:33.728Z,16.97
2023-04-29T08:23:03.973Z,18.80
2023-04-29T08:25:30.519Z,19.70
2023-04-29T08:27:57.813Z,18.50
2023-04-29T08:30:24.644Z,19.83
2023-04-29T08:32:51.289Z,18.70
2023-04-29T08:35:17.863Z,19.40
2023-04-29T08:37:44.447Z,17.60
2023-04-29T08:40:11.110Z,18.47
2023-04-29T08:42:37.648Z,20.53
2023-04-29T08:45:04.263Z,15.53
2023-04-29T08:47:30.989Z,18.43
2023-04-29T08:49:57.641Z,17.97
2023-04-29T08:52:24.192Z,17.17
2023-04-29T08:54:50.858Z,14.70
2023-04-29T08:57:17.459Z,15.07
2023-04-29T08:59:44.281Z,15.80
2023-04-29T09:02:10.970Z,15.83
2023-04-29T09:04:37.512Z,17.33
2023-04-29T09:07:04.140Z,17.20
2023-04-29T09:09:30.952Z,17.00
2023-04-29T09:11:57.522Z,19.10
2023-04-29T09:14:24.607Z,17.33
2023-04-29T09:16:51.646Z,15.43
2023-04-29T09:19:18.218Z,17.60
2023-04-29T09:21:44.808Z,17.07
2023-04-29T09:24:11.351Z,15.53
2023-04-29T09:26:37.855Z,21.30
2023-04-29T09:29:04.565Z,18.40
2023-04-29T09:31:31.177Z,16.27
2023-04-29T09:33:58.884Z,18.10
2023-04-29T09:36:25.655Z,18.97
2023-04-29T09:38:52.287Z,19.43
2023-04-29T09:41:19.980Z,19.90
2023-04-29T09:43:46.581Z,20.43
2023-04-29T09:46:13.222Z,21.80
2023-04-29T09:48:39.980Z,19.43
2023-04-29T09:51:07.066Z,19.93
2023-04-29T09:53:37.840Z,22.03
2023-04-29T09:56:05.246Z,22.10
2023-04-29T09:58:33.873Z,20.23
2023-04-29T10:01:01.704Z,21.37
2023-04-29T10:03:28.541Z,23.00
2023-04-29T10:05:55.403Z,21.27
2023-04-29T10:08:22.394Z,24.13
2023-04-29T10:10:49.966Z,27.53
2023-04-29T10:13:16.484Z,23.73
2023-04-29T10:15:43.206Z,25.50
2023-04-29T10:18:09.950Z,26.37
2023-04-29T10:20:36.774Z,28.87
2023-04-29T10:23:03.621Z,26.87
2023-04-29T10:25:30.200Z,29.20
2023-04-29T10:27:56.911Z,29.83
2023-04-29T10:30:23.502Z,32.37
2023-04-29T10:32:51.986Z,31.87
2023-04-29T10:35:20.085Z,32.10
2023-04-29T10:37:46.787Z,30.73
2023-04-29T10:40:13.706Z,31.43
2023-04-29T10:42:40.301Z,31.23
2023-04-29T10:45:06.878Z,31.27
2023-04-29T10:47:33.560Z,27.67
2023-04-29T10:50:00.933Z,29.70
2023-04-29T10:52:27.454Z,30.77
2023-04-29T10:54:54.027Z,31.97
2023-04-29T10:57:20.654Z,29.87
2023-04-29T10:59:47.719Z,30.70
2023-04-29T11:02:15.880Z,28.43
2023-04-29T11:04:42.424Z,31.53
2023-04-29T11:07:08.992Z,28.00
2023-04-29T11:09:37.009Z,28.40
2023-04-29T11:12:03.962Z,29.20
2023-04-29T11:14:30.704Z,29.40
2023-04-29T11:16:57.551Z,29.30
2023-04-29T11:19:24.431Z,27.77
2023-04-29T11:21:50.947Z,27.70
2023-04-29T11:24:17.636Z,28.20
2023-04-29T11:26:44.498Z,28.60
2023-04-29T11:29:11.078Z,27.83
2023-04-29T11:31:39.351Z,29.77
2023-04-29T11:34:07.088Z,27.80
2023-04-29T11:36:33.667Z,27.50
2023-04-29T11:39:00.355Z,29.43
2023-04-29T11:41:26.930Z,29.20
2023-04-29T11:43:53.477Z,28.40
2023-04-29T11:46:20.260Z,30.00
2023-04-29T11:48:50.059Z,31.37
2023-04-29T11:51:16.660Z,31.13
2023-04-29T11:53:43.295Z,32.60
2023-04-29T11:56:10.245Z,26.93
2023-04-29T11:58:37.067Z,27.73
2023-04-29T12:01:04.336Z,29.23
2023-04-29T12:03:31.226Z,27.90
2023-04-29T12:05:58.006Z,32.53
2023-04-29T12:08:24.533Z,28.57
2023-04-29T12:10:51.359Z,27.10
2023-04-29T12:13:18.089Z,26.70
2023-04-29T12:15:44.744Z,29.23
2023-04-29T12:18:11.480Z,26.63
2023-04-29T12:20:39.166Z,25.33
2023-04-29T12:23:06.298Z,22.40
2023-04-29T12:25:33.001Z,24.43
2023-04-29T12:27:59.516Z,22.43
2023-04-29T12:30:26.078Z,22.77
2023-04-29T12:32:52.870Z,25.23
2023-04-29T12:35:19.449Z,19.67
2023-04-29T12:37:46.094Z,20.40
2023-04-29T12:40:12.934Z,22.07
2023-04-29T12:42:39.437Z,21.40
2023-04-29T12:45:06.586Z,20.60
2023-04-29T12:47:37.134Z,21.63
2023-04-29T12:50:03.979Z,21.40
2023-04-29T12:52:30.512Z,25.03
2023-04-29T12:54:57.510Z,27.73
2023-04-29T12:57:25.137Z,21.47
2023-04-29T12:59:51.760Z,20.30
2023-04-29T13:02:18.404Z,20.53
2023-04-29T13:04:45.176Z,20.37
2023-04-29T13:07:13.079Z,21.73
2023-04-29T13:09:41.732Z,22.00
2023-04-29T13:12:09.541Z,22.30
2023-04-29T13:14:36.429Z,19.30
2023-04-29T13:17:04.042Z,17.87
2023-04-29T13:19:44.048Z,38.27
2023-04-29T13:22:16.606Z,22.57
2023-04-29T13:24:43.198Z,23.90
2023-04-29T13:27:10.867Z,17.67
2023-04-29T13:29:37.524Z,17.17
2023-04-29T13:32:04.139Z,24.57
2023-04-29T13:34:30.923Z,19.70
2023-04-29T13:36:57.533Z,17.10
2023-04-29T13:39:24.490Z,18.60
2023-04-29T13:41:51.511Z,19.50
2023-04-29T13:44:29.367Z,19.00
2023-04-29T13:46:59.848Z,17.40
2023-04-29T13:52:42.839Z,21.20
2023-04-29T13:59:49.959Z,19.03
2023-04-29T14:04:48.616Z,17.87
2023-04-29T14:07:16.029Z,15.07
2023-04-29T14:09:42.576Z,17.33
2023-04-29T14:12:09.100Z,17.63
2023-04-29T14:14:35.604Z,19.30
2023-04-29T14:17:02.244Z,17.83
2023-04-29T14:19:28.864Z,19.03
2023-04-29T14:21:55.545Z,17.30
2023-04-29T14:24:22.439Z,20.10
2023-04-29T14:26:49.063Z,18.80
2023-04-29T14:29:15.601Z,20.07
2023-04-29T14:31:42.419Z,18.67
2023-04-29T14:34:09.498Z,18.50
2023-04-29T14:36:36.033Z,18.67
2023-04-29T14:39:03.848Z,17.57
2023-04-29T14:41:30.554Z,15.57
2023-04-29T14:43:57.252Z,17.47
2023-04-29T14:46:25.144Z,16.30
2023-04-29T14:48:51.767Z,15.43
2023-04-29T14:51:18.272Z,14.57
2023-04-29T14:53:44.812Z,17.40
2023-04-29T14:56:11.405Z,17.93
2023-04-29T14:58:37.921Z,18.37
2023-04-29T15:01:04.465Z,16.27
2023-04-29T15:03:31.783Z,15.80
2023-04-29T15:05:58.764Z,14.47
2023-04-29T15:08:25.466Z,15.00
2023-04-29T15:10:52.068Z,16.20
2023-04-29T15:13:18.898Z,15.27
2023-04-29T15:15:45.612Z,17.20
2023-04-29T15:18:12.224Z,15.87
2023-04-29T15:20:38.836Z,15.37
2023-04-29T15:23:05.663Z,15.10
2023-04-29T15:25:34.417Z,14.70
2023-04-29T15:28:01.187Z,15.47
2023-04-29T15:30:27.743Z,14.67
2023-04-29T15:32:54.446Z,16.60
2023-04-29T15:35:21.093Z,14.87
2023-04-29T15:37:47.762Z,16.53
2023-04-29T15:40:14.343Z,15.40
2023-04-29T15:42:40.897Z,14.33
2023-04-29T15:45:08.748Z,14.50
2023-04-29T15:47:35.451Z,14.90
2023-04-29T15:50:02.066Z,15.20
2023-04-29T15:52:28.627Z,15.23
2023-04-29T15:54:55.280Z,15.43
2023-04-29T15:57:21.882Z,16.80
2023-04-29T15:59:48.441Z,15.23
2023-04-29T16:02:15.266Z,16.03
2023-04-29T16:04:41.876Z,14.83
2023-04-29T16:07:08.414Z,15.10
2023-04-29T16:09:34.971Z,14.90
2023-04-29T16:12:02.173Z,15.60
2023-04-29T16:14:29.889Z,15.23
2023-04-29T16:16:56.633Z,16.33
2023-04-29T16:19:23.268Z,14.83
2023-04-29T16:21:49.799Z,16.30
2023-04-29T16:24:16.341Z,17.07
2023-04-29T16:26:42.941Z,16.40
2023-04-29T16:29:10.056Z,15.03
2023-04-29T16:31:36.627Z,15.53
2023-04-29T16:34:03.402Z,15.07
2023-04-29T16:36:30.182Z,15.30
2023-04-29T16:38:57.849Z,14.17
2023-04-29T16:41:25.932Z,16.93
2023-04-29T16:43:53.493Z,15.20
2023-04-29T16:46:20.108Z,15.83
2023-04-29T16:48:46.647Z,15.87
2023-04-29T16:51:13.176Z,16.10
2023-04-29T16:53:39.748Z,14.13
2023-04-29T16:56:06.443Z,13.73
2023-04-29T16:58:33.032Z,12.33
2023-04-29T17:00:59.825Z,15.40
2023-04-29T17:03:26.439Z,12.47
2023-04-29T17:05:53.206Z,15.27
2023-04-29T17:08:19.998Z,15.57
2023-04-29T17:10:46.698Z,14.63
2023-04-29T17:13:13.212Z,13.40
2023-04-29T17:15:40.279Z,11.70
2023-04-29T17:18:06.995Z,14.20
2023-04-29T17:20:33.945Z,13.07
2023-04-29T17:23:00.483Z,13.63
2023-04-29T17:25:27.026Z,12.87
2023-04-29T17:27:53.524Z,12.57
2023-04-29T17:30:20.111Z,13.67
2023-04-29T17:32:49.319Z,14.23
2023-04-29T17:35:16.097Z,13.10
2023-04-29T17:37:42.798Z,13.20
2023-04-29T17:40:09.684Z,14.03
2023-04-29T17:42:36.395Z,11.40
2023-04-29T17:45:03.048Z,13.40
2023-04-29T17:47:29.650Z,12.30
2023-04-29T17:49:57.693Z,10.70
2023-04-29T17:52:25.493Z,10.37
2023-04-29T17:54:52.055Z,11.23
2023-04-29T17:57:18.575Z,10.33
2023-04-29T17:59:45.408Z,9.53
2023-04-29T18:02:12.073Z,8.40
2023-04-29T18:04:40.485Z,10.33
2023-04-29T18:07:06.997Z,9.37
2023-04-29T18:09:34.723Z,9.00
2023-04-29T18:12:02.233Z,10.07
2023-04-29T18:14:30.503Z,7.80
2023-04-29T18:16:58.600Z,7.77
2023-04-29T18:19:25.238Z,10.43
2023-04-29T18:21:51.807Z,10.50
2023-04-29T18:24:18.396Z,9.50
2023-04-29T18:26:44.925Z,10.40
2023-04-29T18:29:11.481Z,10.13
2023-04-29T18:31:38.127Z,10.30
2023-04-29T18:34:04.879Z,10.03
2023-04-29T18:36:32.003Z,9.40
2023-04-29T18:38:58.920Z,9.13
2023-04-29T18:41:25.688Z,11.10
2023-04-29T18:43:52.208Z,10.97
2023-04-29T18:46:18.871Z,10.50
2023-04-29T18:48:45.632Z,11.67
2023-04-29T18:51:12.191Z,10.47
2023-04-29T18:53:38.985Z,11.37
2023-04-29T18:56:06.455Z,9.50
2023-04-29T18:58:32.989Z,12.00
2023-04-29T19:00:59.898Z,12.10
2023-04-29T19:03:27.098Z,12.83
2023-04-29T19:05:53.689Z,11.73
2023-04-29T19:08:20.436Z,12.30
2023-04-29T19:10:47.137Z,11.83
2023-04-29T19:13:13.752Z,11.47
2023-04-29T19:15:40.821Z,11.50
2023-04-29T19:18:07.414Z,12.27
2023-04-29T19:20:34.016Z,12.73
2023-04-29T19:23:00.768Z,11.60
2023-04-29T19:25:27.266Z,12.17
2023-04-29T19:27:53.901Z,10.10
2023-04-29T19:30:20.432Z,11.53
2023-04-29T19:32:47.548Z,11.90
2023-04-29T19:35:14.246Z,14.80
2023-04-29T19:37:40.911Z,13.93
2023-04-29T19:40:08.987Z,12.50
2023-04-29T19:42:35.565Z,13.90
2023-04-29T19:45:02.459Z,12.80
2023-04-29T19:47:29.173Z,14.13
2023-04-29T19:49:56.004Z,13.00
2023-04-29T19:52:24.529Z,12.83
2023-04-29T19:54:51.199Z,13.30
2023-04-29T19:57:17.869Z,12.93
2023-04-29T19:59:44.557Z,14.03
2023-04-29T20:02:11.638Z,14.20
2023-04-29T20:04:38.343Z,12.40
2023-04-29T20:07:04.868Z,13.93
2023-04-29T20:09:31.972Z,12.37
2023-04-29T20:11:58.579Z,13.80
2023-04-29T20:14:25.729Z,13.57
2023-04-29T20:16:53.089Z,13.07
2023-04-29T20:19:19.832Z,12.53
2023-04-29T20:21:46.458Z,14.37
2023-04-29T20:24:13.093Z,15.30
2023-04-29T20:26:39.743Z,14.53
2023-04-29T20:29:06.361Z,14.93
2023-04-29T20:31:33.138Z,14.67
2023-04-29T20:34:01.293Z,15.60
2023-04-29T20:36:28.524Z,13.00
2023-04-29T20:38:55.054Z,15.20
2023-04-29T20:41:21.641Z,14.00
2023-04-29T20:43:48.483Z,14.57
2023-04-29T20:46:15.865Z,13.67
2023-04-29T20:48:42.570Z,13.23
2023-04-29T20:51:10.355Z,15.43
2023-04-29T20:53:36.948Z,13.83
2023-04-29T20:56:03.578Z,12.40
2023-04-29T20:58:30.163Z,13.13
2023-04-29T21:00:57.315Z,14.80
2023-04-29T21:03:25.898Z,13.10
2023-04-29T21:05:52.874Z,15.37
2023-04-29T21:08:19.400Z,13.20
2023-04-29T21:10:45.930Z,14.60
2023-04-29T21:13:12.496Z,13.13
2023-04-29T21:15:39.012Z,12.50
2023-04-29T21:18:05.911Z,13.10
2023-04-29T21:20:32.486Z,12.00
2023-04-29T21:22:59.563Z,10.70
2023-04-29T21:25:26.106Z,12.10
2023-04-29T21:27:52.656Z,12.90
2023-04-29T21:30:19.270Z,12.40
2023-04-29T21:32:45.837Z,12.50
2023-04-29T21:35:12.402Z,12.80
2023-04-29T21:37:39.036Z,11.40
2023-04-29T21:40:05.613Z,13.97
2023-04-29T21:42:32.264Z,11.70
2023-04-29T21:44:58.857Z,13.73
2023-04-29T21:47:25.448Z,12.13
2023-04-29T21:49:52.344Z,12.90
2023-04-29T21:52:19.023Z,10.30
2023-04-29T21:54:45.594Z,12.97
2023-04-29T21:57:12.157Z,11.93
2023-04-29T21:59:38.702Z,12.27
2023-04-29T22:02:14.851Z,12.30
2023-04-29T22:04:41.832Z,12.90
2023-04-29T22:07:08.884Z,13.17
2023-04-29T22:09:35.434Z,14.67
2023-04-29T22:12:02.938Z,13.20
2023-04-29T22:14:29.753Z,13.17
2023-04-29T22:16:56.261Z,11.63
2023-04-29T22:19:22.844Z,13.30
2023-04-29T22:21:49.405Z,12.07
2023-04-29T22:24:16.162Z,13.70
2023-04-29T22:26:42.784Z,13.00
2023-04-29T22:29:09.318Z,13.30
2023-04-29T22:31:35.899Z,12.67
2023-04-29T22:34:02.544Z,13.40
2023-04-29T22:36:29.260Z,13.50
2023-04-29T22:38:55.922Z,11.43
2023-04-29T22:41:22.473Z,12.03
2023-04-29T22:43:48.968Z,12.43
2023-04-29T22:46:15.542Z,11.93
2023-04-29T22:48:42.192Z,10.10
2023-04-29T22:51:08.766Z,10.30
2023-04-29T22:53:35.381Z,10.23
2023-04-29T22:56:02.195Z,10.57
2023-04-29T22:58:28.854Z,10.43
2023-04-29T23:00:56.421Z,9.80
2023-04-29T23:03:23.180Z,10.13
2023-04-29T23:05:49.796Z,10.30
2023-04-29T23:08:16.305Z,9.30
2023-04-29T23:10:42.882Z,9.80
2023-04-29T23:13:09.425Z,9.20
2023-04-29T23:15:36.075Z,11.00
2023-04-29T23:18:02.657Z,9.87
2023-04-29T23:20:29.197Z,11.33
2023-04-29T23:22:55.742Z,10.40
2023-04-29T23:25:22.331Z,10.10
2023-04-29T23:27:49.002Z,9.90
2023-04-29T23:30:15.545Z,11.10
2023-04-29T23:32:42.102Z,10.30
2023-04-29T23:35:08.611Z,10.87
2023-04-29T23:37:35.413Z,10.30
2023-04-29T23:40:02.090Z,10.30
2023-04-29T23:42:28.736Z,11.13
2023-04-29T23:44:55.268Z,11.53
2023-04-29T23:47:21.953Z,11.47
2023-04-29T23:49:48.568Z,10.93
2023-04-29T23:52:15.298Z,11.00
2023-04-29T23:54:41.839Z,10.20
2023-04-29T23:57:08.391Z,10.07
2023-04-29T23:59:34.956Z,9.40
